createdAt,value
2023-05-05T00:02:20.458Z,9.91
2023-05-05T00:04:48.899Z,9.84
2023-05-05T00:07:16.826Z,9.76
2023-05-05T00:09:44.784Z,9.72
2023-05-05T00:12:12.713Z,9.72
2023-05-05T00:14:41.477Z,9.71
2023-05-05T00:17:09.608Z,9.67
2023-05-05T00:19:37.800Z,9.62
2023-05-05T00:22:06.263Z,9.56
2023-05-05T00:24:34.244Z,9.51
2023-05-05T00:27:02.324Z,9.47
2023-05-05T00:29:30.581Z,9.44
2023-05-05T00:31:58.561Z,9.38
2023-05-05T00:34:26.969Z,9.26
2023-05-05T00:36:55.125Z,9.12
2023-05-05T00:39:23.420Z,8.97
2023-05-05T00:41:51.590Z,8.90
2023-05-05T00:44:34.880Z,8.84
2023-05-05T00:47:03.624Z,8.79
2023-05-05T00:49:32.022Z,8.76
2023-05-05T00:52:00.007Z,8.76
2023-05-05T00:54:28.283Z,8.77
2023-05-05T00:56:56.354Z,8.77
2023-05-05T00:59:24.317Z,8.80
2023-05-05T01:01:52.516Z,8.78
2023-05-05T01:04:20.943Z,8.77
2023-05-05T01:07:12.131Z,8.74
2023-05-05T01:10:11.093Z,8.68
2023-05-05T01:12:49.481Z,8.61
2023-05-05T01:15:23.470Z,8.57
2023-05-05T01:17:58.911Z,8.56
2023-05-05T01:20:26.864Z,8.51
2023-05-05T01:23:00.608Z,8.47
2023-05-05T01:25:48.253Z,8.46
2023-05-05T01:28:40.118Z,8.35
2023-05-05T01:31:28.159Z,8.19
2023-05-05T01:33:59.952Z,8.10
2023-05-05T01:36:31.670Z,7.93
2023-05-05T01:39:00.640Z,7.84
2023-05-05T01:41:30.977Z,7.82
2023-05-05T01:44:03.467Z,7.79
2023-05-05T01:46:32.481Z,7.67
2023-05-05T01:49:00.609Z,7.70
2023-05-05T01:51:29.625Z,7.72
2023-05-05T01:53:59.352Z,7.69
2023-05-05T01:56:28.265Z,7.62
2023-05-05T01:58:57.131Z,7.58
2023-05-05T02:01:26.237Z,7.53
2023-05-05T02:03:56.938Z,7.45
2023-05-05T02:06:27.097Z,7.43
2023-05-05T02:08:58.551Z,7.39
2023-05-05T02:11:27.960Z,7.36
2023-05-05T02:13:57.955Z,7.33
2023-05-05T02:16:26.404Z,7.31
2023-05-05T02:18:54.564Z,7.26
2023-05-05T02:21:22.966Z,7.28
2023-05-05T02:23:52.131Z,7.29
2023-05-05T02:26:21.923Z,7.30
2023-05-05T02:29:04.176Z,7.28
2023-05-05T02:31:34.615Z,7.21
2023-05-05T02:34:05.153Z,7.19
2023-05-05T02:36:38.091Z,7.09
2023-05-05T02:39:12.876Z,7.08
2023-05-05T02:41:43.068Z,7.10
2023-05-05T02:44:17.558Z,7.13
2023-05-05T02:46:46.045Z,7.16
2023-05-05T02:49:15.227Z,7.16
2023-05-05T02:51:43.708Z,7.14
2023-05-05T02:54:18.486Z,7.14
2023-05-05T02:56:49.041Z,7.15
2023-05-05T02:59:36.745Z,7.15
2023-05-05T03:02:08.272Z,7.14
2023-05-05T03:04:41.923Z,7.12
2023-05-05T03:07:14.405Z,7.14
2023-05-05T03:09:46.087Z,7.16
2023-05-05T03:12:18.445Z,7.17
2023-05-05T03:14:59.157Z,7.19
2023-05-05T03:17:31.108Z,7.21
2023-05-05T03:20:02.270Z,7.27
2023-05-05T03:22:37.264Z,7.30
2023-05-05T03:25:06.474Z,7.33
2023-05-05T03:27:34.544Z,7.32
2023-05-05T03:30:02.705Z,7.33
2023-05-05T03:32:32.584Z,7.31
2023-05-05T03:35:00.598Z,7.30
2023-05-05T03:37:31.704Z,7.17
2023-05-05T03:40:00.170Z,7.18
2023-05-05T03:42:28.472Z,7.28
2023-05-05T03:44:57.280Z,7.30
2023-05-05T03:47:25.729Z,7.32
2023-05-05T03:49:54.177Z,7.37
2023-05-05T03:52:22.072Z,7.42
2023-05-05T03:54:50.356Z,7.50
2023-05-05T03:57:19.250Z,7.58
2023-05-05T03:59:47.314Z,7.63
2023-05-05T04:02:18.636Z,7.72
2023-05-05T04:04:47.416Z,7.86
2023-05-05T04:07:15.867Z,8.00
2023-05-05T04:09:44.941Z,8.11
2023-05-05T04:12:13.376Z,8.28
2023-05-05T04:14:41.754Z,8.47
2023-05-05T04:17:10.411Z,8.66
2023-05-05T04:19:39.222Z,8.80
2023-05-05T04:22:08.583Z,8.78
2023-05-05T04:24:37.416Z,8.88
2023-05-05T04:27:05.920Z,8.99
2023-05-05T04:29:34.241Z,9.11
2023-05-05T04:32:02.555Z,9.21
2023-05-05T04:34:30.892Z,9.43
2023-05-05T04:36:59.009Z,9.67
2023-05-05T04:39:27.273Z,9.92
2023-05-05T04:41:55.457Z,10.19
2023-05-05T04:44:23.557Z,10.39
2023-05-05T04:46:51.946Z,10.49
2023-05-05T04:49:20.430Z,10.49
2023-05-05T04:51:48.778Z,10.71
2023-05-05T04:54:16.968Z,11.03
2023-05-05T04:56:45.045Z,11.43
2023-05-05T04:59:13.132Z,11.78
2023-05-05T05:01:41.310Z,11.97
2023-05-05T05:04:14.012Z,12.11
2023-05-05T05:06:41.956Z,12.22
2023-05-05T05:09:09.942Z,12.49
2023-05-05T05:11:38.007Z,12.73
2023-05-05T05:14:05.888Z,12.95
2023-05-05T05:16:33.944Z,12.82
2023-05-05T05:19:02.358Z,13.02
2023-05-05T05:21:31.832Z,13.13
2023-05-05T05:24:00.477Z,13.29
2023-05-05T05:26:28.425Z,13.47
2023-05-05T05:28:56.702Z,13.61
2023-05-05T05:31:25.214Z,13.67
2023-05-05T05:33:53.725Z,13.81
2023-05-05T05:36:21.796Z,14.08
2023-05-05T05:38:50.154Z,14.31
2023-05-05T05:41:18.220Z,14.61
2023-05-05T05:43:46.344Z,14.76
2023-05-05T05:46:14.905Z,14.93
2023-05-05T05:48:44.245Z,14.93
2023-05-05T05:51:12.217Z,15.13
2023-05-05T05:53:40.223Z,14.83
2023-05-05T05:56:09.194Z,14.95
2023-05-05T05:58:37.495Z,15.23
2023-05-05T06:01:05.632Z,15.04
2023-05-05T06:03:34.214Z,14.92
2023-05-05T06:06:02.343Z,15.12
2023-05-05T06:08:30.639Z,15.28
2023-05-05T06:11:00.659Z,15.05
2023-05-05T06:13:28.810Z,15.23
2023-05-05T06:15:57.293Z,15.39
2023-05-05T06:18:25.311Z,15.42
2023-05-05T06:20:53.378Z,15.48
2023-05-05T06:23:22.641Z,15.43
2023-05-05T06:25:55.737Z,15.61
2023-05-05T06:28:23.833Z,15.94
2023-05-05T06:30:51.987Z,16.22
2023-05-05T06:33:20.118Z,16.29
2023-05-05T06:35:51.658Z,16.49
2023-05-05T06:38:20.042Z,16.57
2023-05-05T06:40:49.768Z,16.48
2023-05-05T06:43:18.077Z,16.55
2023-05-05T06:45:49.474Z,16.70
2023-05-05T06:48:18.553Z,16.56
2023-05-05T06:50:46.905Z,16.57
2023-05-05T06:53:15.065Z,16.62
2023-05-05T06:55:44.929Z,16.71
2023-05-05T06:58:13.309Z,16.77
2023-05-05T07:00:41.458Z,16.91
2023-05-05T07:03:09.554Z,17.03
2023-05-05T07:05:37.664Z,17.08
2023-05-05T07:08:06.752Z,17.08
2023-05-05T07:10:35.127Z,17.06
2023-05-05T07:13:03.194Z,17.25
2023-05-05T07:15:31.335Z,17.31
2023-05-05T07:17:59.539Z,17.40
2023-05-05T07:20:27.709Z,17.34
2023-05-05T07:22:56.113Z,17.48
2023-05-05T07:25:24.104Z,17.54
2023-05-05T07:27:52.381Z,17.65
2023-05-05T07:30:21.421Z,17.57
2023-05-05T07:32:49.698Z,17.47
2023-05-05T07:35:17.826Z,17.57
2023-05-05T07:37:48.834Z,17.71
2023-05-05T07:40:16.982Z,17.83
2023-05-05T07:42:45.058Z,17.74
2023-05-05T07:45:13.099Z,17.78
2023-05-05T07:47:41.251Z,17.79
2023-05-05T07:50:09.871Z,17.80
2023-05-05T07:52:48.277Z,17.80
2023-05-05T07:55:19.660Z,17.87
2023-05-05T07:57:48.015Z,17.98
2023-05-05T08:00:16.583Z,18.00
2023-05-05T08:02:44.847Z,17.93
2023-05-05T08:05:13.239Z,17.85
2023-05-05T08:07:41.691Z,18.03
2023-05-05T08:10:10.827Z,18.18
2023-05-05T08:12:39.193Z,18.31
2023-05-05T08:15:07.766Z,18.38
2023-05-05T08:17:49.507Z,18.38
2023-05-05T08:20:18.726Z,18.33
2023-05-05T08:22:46.918Z,18.23
2023-05-05T08:25:14.998Z,18.31
2023-05-05T08:27:43.251Z,18.57
2023-05-05T08:30:12.092Z,18.94
2023-05-05T08:32:40.222Z,19.16
2023-05-05T08:35:08.570Z,19.40
2023-05-05T08:37:37.054Z,19.66
2023-05-05T08:40:05.973Z,19.73
2023-05-05T08:42:38.460Z,19.78
2023-05-05T08:45:08.668Z,19.74
2023-05-05T08:47:37.779Z,19.66
2023-05-05T08:50:06.238Z,19.30
2023-05-05T08:52:44.912Z,19.21
2023-05-05T08:55:14.752Z,19.00
2023-05-05T08:57:51.802Z,19.12
2023-05-05T09:00:20.581Z,19.20
2023-05-05T09:02:49.354Z,19.47
2023-05-05T09:05:18.059Z,19.59
2023-05-05T09:07:47.428Z,19.45
2023-05-05T09:10:16.002Z,19.21
2023-05-05T09:12:44.202Z,19.52
2023-05-05T09:15:14.183Z,19.73
2023-05-05T09:17:43.368Z,19.76
2023-05-05T09:20:12.784Z,19.73
2023-05-05T09:22:42.083Z,19.63
2023-05-05T09:25:12.201Z,19.56
2023-05-05T09:27:41.489Z,19.51
2023-05-05T09:30:11.321Z,19.47
2023-05-05T09:32:46.072Z,19.32
2023-05-05T09:35:14.577Z,19.45
2023-05-05T09:37:42.802Z,19.74
2023-05-05T09:40:11.369Z,19.85
2023-05-05T09:42:39.987Z,19.71
2023-05-05T09:45:08.168Z,19.43
2023-05-05T09:47:37.237Z,19.31
2023-05-05T09:50:06.810Z,19.52
2023-05-05T09:52:35.467Z,19.69
2023-05-05T09:55:03.714Z,19.84
2023-05-05T09:57:34.981Z,19.82
2023-05-05T10:00:04.481Z,19.80
2023-05-05T10:02:34.790Z,19.71
2023-05-05T10:05:16.625Z,19.53
2023-05-05T10:07:46.107Z,19.62
2023-05-05T10:10:15.214Z,19.70
2023-05-05T10:12:43.421Z,19.70
2023-05-05T10:15:12.173Z,19.73
2023-05-05T10:18:02.346Z,20.01
2023-05-05T10:20:36.507Z,20.09
2023-05-05T10:23:07.168Z,20.37
2023-05-05T10:25:39.215Z,20.71
2023-05-05T10:28:09.821Z,20.93
2023-05-05T10:30:43.144Z,21.21
2023-05-05T10:35:53.342Z,21.02
2023-05-05T10:38:24.829Z,20.93
2023-05-05T10:40:55.309Z,20.81
2023-05-05T10:43:23.508Z,20.79
2023-05-05T10:45:52.152Z,20.71
2023-05-05T10:48:32.434Z,21.04
2023-05-05T10:51:27.321Z,21.48
2023-05-05T10:54:18.520Z,21.77
2023-05-05T10:56:47.173Z,21.83
2023-05-05T10:59:33.891Z,21.92
2023-05-05T11:02:01.851Z,21.83
2023-05-05T11:04:31.016Z,21.55
2023-05-05T11:07:11.042Z,21.33
2023-05-05T11:09:55.210Z,21.00
2023-05-05T11:12:23.135Z,20.75
2023-05-05T11:15:09.896Z,20.37
2023-05-05T11:17:45.465Z,20.25
2023-05-05T11:20:13.645Z,20.31
2023-05-05T11:23:00.926Z,20.31
2023-05-05T11:25:35.421Z,20.55
2023-05-05T11:28:04.983Z,20.69
2023-05-05T11:30:32.934Z,20.76
2023-05-05T11:33:19.778Z,21.02
2023-05-05T11:35:54.594Z,21.34
2023-05-05T11:38:26.273Z,21.64
2023-05-05T11:40:59.627Z,21.83
2023-05-05T11:43:27.967Z,21.90
2023-05-05T11:46:15.355Z,21.80
2023-05-05T11:48:47.394Z,21.71
2023-05-05T11:51:16.484Z,21.58
2023-05-05T11:53:45.600Z,21.33
2023-05-05T11:56:19.222Z,21.38
2023-05-05T11:59:05.460Z,21.58
2023-05-05T12:01:33.465Z,21.63
2023-05-05T12:04:01.908Z,21.66
2023-05-05T12:06:32.476Z,21.68
2023-05-05T12:09:01.175Z,21.81
2023-05-05T12:11:29.260Z,21.71
2023-05-05T12:14:07.191Z,21.93
2023-05-05T12:16:35.324Z,21.98
2023-05-05T12:19:05.803Z,21.89
2023-05-05T12:21:34.378Z,21.89
2023-05-05T12:24:02.963Z,22.20
2023-05-05T12:26:31.781Z,22.39
2023-05-05T12:29:00.655Z,22.39
2023-05-05T12:31:38.576Z,22.18
2023-05-05T12:34:07.941Z,21.95
2023-05-05T12:36:36.359Z,21.75
2023-05-05T12:39:05.429Z,21.35
2023-05-05T12:41:34.121Z,21.27
2023-05-05T12:44:03.246Z,21.23
2023-05-05T12:46:32.037Z,21.01
2023-05-05T12:49:01.631Z,21.00
2023-05-05T12:51:29.830Z,21.03
2023-05-05T12:54:05.062Z,20.95
2023-05-05T12:56:33.289Z,20.97
2023-05-05T12:59:02.230Z,20.91
2023-05-05T13:01:30.616Z,21.04
2023-05-05T13:04:12.105Z,21.12
2023-05-05T13:06:44.189Z,21.17
2023-05-05T13:09:31.010Z,21.24
2023-05-05T13:11:59.398Z,21.23
2023-05-05T13:14:27.388Z,21.19
2023-05-05T13:16:55.996Z,21.26
2023-05-05T13:19:27.757Z,21.32
2023-05-05T13:21:56.649Z,21.40
2023-05-05T13:24:37.852Z,21.42
2023-05-05T13:27:07.369Z,21.42
2023-05-05T13:29:36.248Z,21.36
2023-05-05T13:32:06.143Z,21.44
2023-05-05T13:34:34.380Z,21.42
2023-05-05T13:37:02.386Z,21.50
2023-05-05T13:39:30.365Z,21.48
2023-05-05T13:41:58.357Z,21.50
2023-05-05T13:44:26.468Z,21.55
2023-05-05T13:46:54.650Z,21.61
2023-05-05T13:49:22.828Z,21.64
2023-05-05T13:51:50.866Z,21.62
2023-05-05T13:54:18.887Z,21.62
2023-05-05T13:56:46.999Z,21.54
2023-05-05T13:59:15.226Z,21.64
2023-05-05T14:01:43.303Z,21.68
2023-05-05T14:04:11.337Z,21.68
2023-05-05T14:06:39.550Z,21.72
2023-05-05T14:09:08.215Z,21.78
2023-05-05T14:11:36.362Z,21.80
2023-05-05T14:14:04.379Z,21.82
2023-05-05T14:16:32.644Z,21.74
2023-05-05T14:19:00.825Z,21.56
2023-05-05T14:21:28.972Z,21.26
2023-05-05T14:23:57.088Z,20.91
2023-05-05T14:26:25.802Z,20.65
2023-05-05T14:28:54.018Z,20.56
2023-05-05T14:31:22.160Z,20.49
2023-05-05T14:33:50.922Z,20.28
2023-05-05T14:36:18.872Z,20.41
2023-05-05T14:38:46.932Z,20.53
2023-05-05T14:41:14.911Z,20.57
2023-05-05T14:43:42.874Z,20.62
2023-05-05T14:46:10.898Z,20.56
2023-05-05T14:48:38.898Z,20.55
2023-05-05T14:51:06.815Z,20.65
2023-05-05T14:53:34.879Z,20.70
2023-05-05T14:56:03.281Z,20.71
2023-05-05T14:58:31.386Z,20.67
2023-05-05T15:01:00.692Z,20.68
2023-05-05T15:03:28.967Z,20.70
2023-05-05T15:05:57.558Z,20.67
2023-05-05T15:08:25.609Z,20.67
2023-05-05T15:10:53.579Z,20.65
2023-05-05T15:13:21.660Z,20.71
2023-05-05T15:15:50.141Z,20.63
2023-05-05T15:18:18.158Z,20.44
2023-05-05T15:20:46.568Z,20.46
2023-05-05T15:23:14.650Z,20.54
2023-05-05T15:25:42.688Z,20.56
2023-05-05T15:28:10.738Z,20.58
2023-05-05T15:30:38.660Z,20.48
2023-05-05T15:33:06.684Z,20.44
2023-05-05T15:35:34.870Z,20.47
2023-05-05T15:38:03.428Z,20.44
2023-05-05T15:40:31.555Z,20.38
2023-05-05T15:42:59.524Z,20.33
2023-05-05T15:45:27.680Z,20.36
2023-05-05T15:47:56.244Z,20.30
2023-05-05T15:50:24.509Z,20.18
2023-05-05T15:52:52.514Z,19.97
2023-05-05T15:55:20.582Z,19.99
2023-05-05T15:57:48.563Z,19.92
2023-05-05T16:00:16.783Z,19.83
2023-05-05T16:02:45.184Z,19.71
2023-05-05T16:05:13.279Z,19.70
2023-05-05T16:07:41.226Z,19.61
2023-05-05T16:10:10.106Z,19.52
2023-05-05T16:12:38.440Z,19.52
2023-05-05T16:15:07.095Z,19.49
2023-05-05T16:17:35.253Z,19.35
2023-05-05T16:20:03.983Z,19.22
2023-05-05T16:22:31.992Z,19.04
2023-05-05T16:24:59.995Z,18.88
2023-05-05T16:27:27.878Z,18.78
2023-05-05T16:29:57.703Z,18.69
2023-05-05T16:32:27.108Z,18.56
2023-05-05T16:34:55.313Z,18.49
2023-05-05T16:37:23.360Z,18.42
2023-05-05T16:39:51.465Z,18.39
2023-05-05T16:42:20.257Z,18.32
2023-05-05T16:44:48.205Z,18.33
2023-05-05T16:47:16.292Z,18.38
2023-05-05T16:49:44.254Z,18.35
2023-05-05T16:52:12.154Z,18.31
2023-05-05T16:54:40.087Z,18.27
2023-05-05T16:57:08.092Z,18.23
2023-05-05T16:59:36.178Z,18.20
2023-05-05T17:02:04.427Z,18.13
2023-05-05T17:04:32.825Z,18.06
2023-05-05T17:07:01.107Z,18.08
2023-05-05T17:09:29.197Z,18.11
2023-05-05T17:11:57.518Z,18.14
2023-05-05T17:14:27.355Z,18.03
2023-05-05T17:16:55.388Z,17.99
2023-05-05T17:19:23.274Z,18.04
2023-05-05T17:21:51.229Z,18.08
2023-05-05T17:24:19.353Z,18.06
2023-05-05T17:26:47.320Z,17.96
2023-05-05T17:29:19.817Z,17.98
2023-05-05T17:31:47.912Z,18.00
2023-05-05T17:34:16.130Z,17.93
2023-05-05T17:36:44.123Z,17.78
2023-05-05T17:39:12.077Z,17.60
2023-05-05T17:41:42.095Z,17.40
2023-05-05T17:44:10.278Z,17.22
2023-05-05T17:46:39.475Z,17.05
2023-05-05T17:49:07.423Z,16.88
2023-05-05T17:51:35.624Z,16.74
2023-05-05T17:54:03.676Z,16.60
2023-05-05T17:56:31.611Z,16.47
2023-05-05T17:59:00.456Z,16.32
2023-05-05T18:01:28.580Z,16.18
2023-05-05T18:03:57.534Z,16.04
2023-05-05T18:06:25.894Z,15.93
2023-05-05T18:08:54.004Z,15.81
2023-05-05T18:11:26.803Z,15.68
2023-05-05T18:13:56.195Z,15.56
2023-05-05T18:16:24.262Z,15.45
2023-05-05T18:18:52.278Z,15.36
2023-05-05T18:21:20.617Z,15.29
2023-05-05T18:23:49.857Z,15.23
2023-05-05T18:26:18.082Z,15.17
2023-05-05T18:28:46.077Z,15.07
2023-05-05T18:31:14.051Z,14.95
2023-05-05T18:33:41.943Z,14.82
2023-05-05T18:36:09.872Z,14.73
2023-05-05T18:38:37.801Z,14.62
2023-05-05T18:41:05.756Z,14.52
2023-05-05T18:43:33.622Z,14.42
2023-05-05T18:46:01.733Z,14.30
2023-05-05T18:48:30.192Z,14.20
2023-05-05T18:51:04.814Z,14.06
2023-05-05T18:53:32.800Z,13.85
2023-05-05T18:56:01.577Z,13.69
2023-05-05T18:58:30.663Z,13.50
2023-05-05T19:00:58.658Z,13.34
2023-05-05T19:03:26.874Z,13.25
2023-05-05T19:05:54.830Z,13.19
2023-05-05T19:08:23.217Z,13.15
2023-05-05T19:10:51.382Z,13.12
2023-05-05T19:13:19.365Z,13.06
2023-05-05T19:15:48.163Z,13.06
2023-05-05T19:18:16.242Z,13.00
2023-05-05T19:20:44.321Z,12.91
2023-05-05T19:23:12.424Z,12.86
2023-05-05T19:25:40.387Z,12.86
2023-05-05T19:28:09.564Z,12.84
2023-05-05T19:30:37.912Z,12.80
2023-05-05T19:33:06.180Z,12.76
2023-05-05T19:35:34.260Z,12.70
2023-05-05T19:38:02.610Z,12.63
2023-05-05T19:40:30.728Z,12.61
2023-05-05T19:42:58.692Z,12.59
2023-05-05T19:45:26.626Z,12.52
2023-05-05T19:47:54.594Z,12.47
2023-05-05T19:50:22.651Z,12.41
2023-05-05T19:52:51.603Z,12.36
2023-05-05T19:55:20.606Z,12.27
2023-05-05T19:57:48.533Z,12.21
2023-05-05T20:00:17.457Z,12.18
2023-05-05T20:02:45.918Z,12.15
2023-05-05T20:05:16.345Z,12.12
2023-05-05T20:07:45.293Z,12.12
2023-05-05T20:10:13.551Z,12.12
2023-05-05T20:12:47.893Z,12.09
2023-05-05T20:15:20.295Z,12.07
2023-05-05T20:17:48.819Z,12.02
2023-05-05T20:20:18.790Z,12.00
2023-05-05T20:22:47.498Z,11.99
2023-05-05T20:25:18.721Z,11.95
2023-05-05T20:27:46.757Z,11.91
2023-05-05T20:30:14.792Z,11.89
2023-05-05T20:32:42.807Z,11.85
2023-05-05T20:35:12.870Z,11.82
2023-05-05T20:37:41.349Z,11.81
2023-05-05T20:40:09.744Z,11.79
2023-05-05T20:42:38.037Z,11.72
2023-05-05T20:45:07.267Z,11.69
2023-05-05T20:47:35.736Z,11.68
2023-05-05T20:50:03.982Z,11.64
2023-05-05T20:52:33.817Z,11.57
2023-05-05T20:55:01.804Z,11.48
2023-05-05T20:57:29.980Z,11.39
2023-05-05T20:59:58.112Z,11.31
2023-05-05T21:02:26.204Z,11.26
2023-05-05T21:04:54.269Z,11.24
2023-05-05T21:07:22.254Z,11.24
2023-05-05T21:09:50.124Z,11.27
2023-05-05T21:12:18.132Z,11.32
2023-05-05T21:14:46.213Z,11.35
2023-05-05T21:17:14.185Z,11.33
2023-05-05T21:19:42.065Z,11.31
2023-05-05T21:22:10.044Z,11.27
2023-05-05T21:24:38.348Z,11.25
2023-05-05T21:27:06.351Z,11.26
2023-05-05T21:29:37.666Z,11.25
2023-05-05T21:32:07.439Z,11.25
2023-05-05T21:34:35.631Z,11.24
2023-05-05T21:37:04.374Z,11.23
2023-05-05T21:39:35.550Z,11.24
2023-05-05T21:42:03.470Z,11.26
2023-05-05T21:44:31.683Z,11.28
2023-05-05T21:46:59.862Z,11.29
2023-05-05T21:49:27.800Z,11.27
2023-05-05T21:51:56.442Z,11.28
2023-05-05T21:54:24.381Z,11.28
2023-05-05T21:56:52.354Z,11.28
2023-05-05T21:59:20.410Z,11.26
2023-05-05T22:01:51.557Z,11.30
2023-05-05T22:04:19.678Z,11.34
2023-05-05T22:06:47.693Z,11.39
2023-05-05T22:09:15.587Z,11.41
2023-05-05T22:11:43.581Z,11.41
2023-05-05T22:14:11.502Z,11.43
2023-05-05T22:16:39.556Z,11.38
2023-05-05T22:19:07.664Z,11.33
2023-05-05T22:21:35.589Z,11.34
2023-05-05T22:24:03.609Z,11.29
2023-05-05T22:26:31.687Z,11.25
2023-05-05T22:28:59.716Z,11.21
2023-05-05T22:31:29.521Z,11.15
2023-05-05T22:33:57.621Z,11.13
2023-05-05T22:36:26.109Z,11.06
2023-05-05T22:38:54.022Z,10.97
2023-05-05T22:41:22.162Z,10.96
2023-05-05T22:43:50.135Z,10.96
2023-05-05T22:46:18.055Z,10.99
2023-05-05T22:48:46.793Z,11.02
2023-05-05T22:51:14.685Z,11.04
2023-05-05T22:53:42.781Z,11.03
2023-05-05T22:56:10.710Z,11.02
2023-05-05T22:58:38.626Z,11.01
2023-05-05T23:01:07.489Z,10.98
2023-05-05T23:03:35.641Z,10.89
2023-05-05T23:06:03.896Z,10.82
2023-05-05T23:08:32.022Z,10.81
2023-05-05T23:11:00.832Z,10.82
2023-05-05T23:13:28.895Z,10.84
2023-05-05T23:15:57.088Z,10.85
2023-05-05T23:18:25.156Z,10.83
2023-05-05T23:20:53.251Z,10.78
2023-05-05T23:23:21.107Z,10.77
2023-05-05T23:25:49.640Z,10.79
2023-05-05T23:28:18.713Z,10.80
2023-05-05T23:30:46.722Z,10.80
2023-05-05T23:33:14.767Z,10.79
2023-05-05T23:35:45.407Z,10.81
2023-05-05T23:38:13.316Z,10.81
2023-05-05T23:40:41.785Z,10.79
2023-05-05T23:43:12.108Z,10.81
2023-05-05T23:45:40.492Z,10.81
2023-05-05T23:48:08.494Z,10.82
2023-05-05T23:50:36.429Z,10.84
2023-05-05T23:53:04.360Z,10.86
2023-05-05T23:55:32.239Z,10.86
2023-05-05T23:58:00.275Z,10.87
